Time,TemperatureF,DewpointF,PressureIn,WindDirection,WindDirectionDegrees,WindSpeedMPH,WindSpeedGustMPH,Humidity,HourlyPrecipIn,Conditions,Clouds,dailyrainin,SoftwareType,DateUTC
2013-05-01 00:12:00,62.6,55.0,30.03,SE,146,0.0,-999.0,77,-99.99,,,0.00,weatherlink.com 1.10,2013-05-01 04:12:00,
2013-05-01 00:28:00,62.0,55.0,30.03,SE,146,1.0,-999.0,79,-99.99,,,0.00,weatherlink.com 1.10,2013-05-01 04:28:00,
2013-05-01 00:43:00,61.5,55.0,30.04,SE,146,1.0,-999.0,79,-99.99,,,0.00,weatherlink.com 1.10,2013-05-01 04:43:00,
2013-05-01 00:58:00,61.0,55.0,30.03,SE,146,4.0,-999.0,80,-99.99,,,0.00,weatherlink.com 1.10,2013-05-01 04:58:00,
2013-05-01 01:13:00,60.4,55.0,30.04,SE,146,4.0,-999.0,81,-99.99,,,0.00,weatherlink.com 1.10,2013-05-01 05:13:00,
2013-05-01 01:28:00,60.3,54.0,30.04,SE,146,4.0,-999.0,81,-99.99,,,0.00,weatherlink.com 1.10,2013-05-01 05:28:00,
2013-05-01 01:43:00,60.1,55.0,30.04,SE,146,1.0,-999.0,82,-99.99,,,0.00,weatherlink.com 1.10,2013-05-01 05:43:00,
2013-05-01 01:58:00,60.0,55.0,30.04,SE,146,1.0,-999.0,82,-99.99,,,0.00,weatherlink.com 1.10,2013-05-01 05:58:00,
2013-05-01 02:13:00,59.6,54.0,30.04,SE,146,2.0,-999.0,82,-99.99,,,0.00,weatherlink.com 1.10,2013-05-01 06:13:00,
2013-05-01 02:28:00,59.4,54.0,30.04,SE,146,2.0,-999.0,83,-99.99,,,0.00,weatherlink.com 1.10,2013-05-01 06:28:00,
2013-05-01 02:43:00,59.7,54.0,30.04,SE,146,2.0,-999.0,82,-99.99,,,0.00,weatherlink.com 1.10,2013-05-01 06:43:00,
2013-05-01 02:58:00,59.9,54.0,30.04,SE,146,1.0,-999.0,82,-99.99,,,0.00,weatherlink.com 1.10,2013-05-01 06:58:00,
2013-05-01 03:13:00,59.8,54.0,30.04,SE,146,2.0,-999.0,82,-99.99,,,0.00,weatherlink.com 1.10,2013-05-01 07:13:00,
2013-05-01 03:28:00,59.9,54.0,30.05,SE,146,2.0,-999.0,82,-99.99,,,0.00,weatherlink.com 1.10,2013-05-01 07:28:00,
2013-05-01 03:44:00,59.9,54.0,30.05,SE,146,6.0,-999.0,82,-99.99,,,0.00,weatherlink.com 1.10,2013-05-01 07:44:00,
2013-05-01 03:59:00,60.0,55.0,30.05,SE,145,4.0,-999.0,82,-99.99,,,0.00,weatherlink.com 1.10,2013-05-01 07:59:00,
2013-05-01 04:14:00,59.9,54.0,30.05,SE,145,4.0,-999.0,82,-99.99,,,0.00,weatherlink.com 1.10,2013-05-01 08:14:00,
2013-05-01 04:29:00,59.6,54.0,30.06,SE,145,4.0,-999.0,83,-99.99,,,0.00,weatherlink.com 1.10,2013-05-01 08:29:00,
2013-05-01 04:44:00,59.4,54.0,30.06,SE,145,4.0,-999.0,83,-99.99,,,0.00,weatherlink.com 1.10,2013-05-01 08:44:00,
2013-05-01 04:59:00,59.1,54.0,30.06,SE,145,1.0,-999.0,83,-99.99,,,0.00,weatherlink.com 1.10,2013-05-01 08:59:00,
2013-05-01 05:14:00,59.0,54.0,30.06,SE,145,2.0,-999.0,83,-99.99,,,0.00,weatherlink.com 1.10,2013-05-01 09:14:00,
2013-05-01 05:29:00,58.8,54.0,30.07,SE,145,2.0,-999.0,84,-99.99,,,0.00,weatherlink.com 1.10,2013-05-01 09:29:00,
2013-05-01 05:44:00,58.5,54.0,30.07,SE,145,0.0,-999.0,84,-99.99,,,0.00,weatherlink.com 1.10,2013-05-01 09:44:00,
2013-05-01 05:59:00,58.3,54.0,30.07,SE,145,0.0,-999.0,84,-99.99,,,0.00,weatherlink.com 1.10,2013-05-01 09:59:00,
2013-05-01 06:14:00,57.6,53.0,30.09,SE,145,0.0,-999.0,85,-99.99,,,0.00,weatherlink.com 1.10,2013-05-01 10:14:00,
2013-05-01 06:29:00,57.0,53.0,30.09,SE,145,2.0,-999.0,86,-99.99,,,0.00,weatherlink.com 1.10,2013-05-01 10:29:00,
2013-05-01 06:45:00,56.8,53.0,30.10,SE,138,2.0,-999.0,87,-99.99,,,0.00,weatherlink.com 1.10,2013-05-01 10:45:00,
2013-05-01 07:00:00,57.2,53.0,30.11,SE,138,4.0,-999.0,86,-99.99,,,0.00,weatherlink.com 1.10,2013-05-01 11:00:00,
2013-05-01 07:15:00,57.7,53.0,30.12,SE,137,4.0,-999.0,85,-99.99,,,0.00,weatherlink.com 1.10,2013-05-01 11:15:00,
2013-05-01 07:30:00,58.3,54.0,30.12,SE,126,4.0,-999.0,85,-99.99,,,0.00,weatherlink.com 1.10,2013-05-01 11:30:00,
2013-05-01 07:45:00,58.9,54.0,30.12,SE,126,4.0,-999.0,85,-99.99,,,0.00,weatherlink.com 1.10,2013-05-01 11:45:00,
2013-05-01 08:00:00,59.9,55.0,30.13,SE,125,5.0,-999.0,83,-99.99,,,0.00,weatherlink.com 1.10,2013-05-01 12:00:00,
2013-05-01 08:15:00,61.1,56.0,30.13,SE,126,4.0,-999.0,82,-99.99,,,0.00,weatherlink.com 1.10,2013-05-01 12:15:00,
2013-05-01 08:30:00,62.3,56.0,30.14,ESE,123,5.0,-999.0,81,-99.99,,,0.00,weatherlink.com 1.10,2013-05-01 12:30:00,
2013-05-01 08:46:00,63.5,57.0,30.14,SE,125,5.0,-999.0,79,-99.99,,,0.00,weatherlink.com 1.10,2013-05-01 12:46:00,
2013-05-01 09:01:00,64.9,58.0,30.14,SE,128,6.0,-999.0,77,-99.99,,,0.00,weatherlink.com 1.10,2013-05-01 13:01:00,
2013-05-01 09:16:00,66.4,58.0,30.14,SE,129,6.0,-999.0,74,-99.99,,,0.00,weatherlink.com 1.10,2013-05-01 13:16:00,
2013-05-01 09:31:00,67.6,58.0,30.14,SE,131,7.0,-999.0,71,-99.99,,,0.00,weatherlink.com 1.10,2013-05-01 13:31:00,
2013-05-01 09:46:00,68.8,58.0,30.15,ESE,122,4.0,-999.0,69,-99.99,,,0.00,weatherlink.com 1.10,2013-05-01 13:46:00,
2013-05-01 10:01:00,70.0,58.0,30.15,SE,126,5.0,-999.0,67,-99.99,,,0.00,weatherlink.com 1.10,2013-05-01 14:01:00,
2013-05-01 10:16:00,70.8,58.0,30.15,SE,130,5.0,-999.0,64,-99.99,,,0.00,weatherlink.com 1.10,2013-05-01 14:16:00,
2013-05-01 10:31:00,71.8,59.0,30.15,SE,132,9.0,-999.0,64,-99.99,,,0.00,weatherlink.com 1.10,2013-05-01 14:31:00,
2013-05-01 10:47:00,73.0,59.0,30.15,SE,142,5.0,-999.0,62,-99.99,,,0.00,weatherlink.com 1.10,2013-05-01 14:47:00,
2013-05-01 11:02:00,73.8,59.0,30.15,SE,130,5.0,-999.0,60,-99.99,,,0.00,weatherlink.com 1.10,2013-05-01 15:02:00,
2013-05-01 11:17:00,74.8,59.0,30.15,SE,130,0.0,-999.0,58,-99.99,,,0.00,weatherlink.com 1.10,2013-05-01 15:17:00,
2013-05-01 11:32:00,75.6,58.0,30.15,ESE,108,5.0,-999.0,55,-99.99,,,0.00,weatherlink.com 1.10,2013-05-01 15:32:00,
2013-05-01 11:47:00,76.6,59.0,30.15,ESE,112,5.0,-999.0,54,-99.99,,,0.00,weatherlink.com 1.10,2013-05-01 15:47:00,
2013-05-01 12:02:00,77.3,58.0,30.15,ESE,103,6.0,-999.0,51,-99.99,,,0.00,weatherlink.com 1.10,2013-05-01 16:02:00,
2013-05-01 12:17:00,78.2,58.0,30.15,ESE,121,5.0,-999.0,50,-99.99,,,0.00,weatherlink.com 1.10,2013-05-01 16:17:00,
2013-05-01 12:32:00,78.3,57.0,30.14,ESE,105,7.0,-999.0,48,-99.99,,,0.00,weatherlink.com 1.10,2013-05-01 16:32:00,
2013-05-01 12:47:00,78.6,57.0,30.14,SE,136,8.0,-999.0,47,-99.99,,,0.00,weatherlink.com 1.10,2013-05-01 16:47:00,
2013-05-01 13:03:00,78.8,59.0,30.14,ESE,117,6.0,-999.0,50,-99.99,,,0.00,weatherlink.com 1.10,2013-05-01 17:03:00,
2013-05-01 13:18:00,78.9,57.0,30.14,ESE,103,2.0,-999.0,48,-99.99,,,0.00,weatherlink.com 1.10,2013-05-01 17:18:00,
2013-05-01 13:33:00,79.5,58.0,30.14,ESE,115,7.0,-999.0,48,-99.99,,,0.00,weatherlink.com 1.10,2013-05-01 17:33:00,
2013-05-01 13:48:00,80.0,57.0,30.14,SE,126,4.0,-999.0,46,-99.99,,,0.00,weatherlink.com 1.10,2013-05-01 17:48:00,
2013-05-01 14:03:00,79.5,57.0,30.14,East,94,7.0,-999.0,46,-99.99,,,0.00,weatherlink.com 1.10,2013-05-01 18:03:00,
2013-05-01 14:18:00,80.0,57.0,30.15,East,101,6.0,-999.0,46,-99.99,,,0.00,weatherlink.com 1.10,2013-05-01 18:18:00,
2013-05-01 14:33:00,79.9,55.0,30.14,East,94,7.0,-999.0,43,-99.99,,,0.00,weatherlink.com 1.10,2013-05-01 18:33:00,
2013-05-01 14:48:00,80.1,56.0,30.15,ESE,122,9.0,-999.0,44,-99.99,,,0.00,weatherlink.com 1.10,2013-05-01 18:48:00,
2013-05-01 15:03:00,80.2,56.0,30.14,East,98,9.0,-999.0,43,-99.99,,,0.00,weatherlink.com 1.10,2013-05-01 19:03:00,
2013-05-01 15:18:00,80.5,57.0,30.14,ESE,123,13.0,-999.0,45,-99.99,,,0.00,weatherlink.com 1.10,2013-05-01 19:18:00,
2013-05-01 15:33:00,80.7,57.0,30.14,ESE,113,9.0,-999.0,44,-99.99,,,0.00,weatherlink.com 1.10,2013-05-01 19:33:00,
2013-05-01 15:48:00,80.8,57.0,30.14,SE,139,7.0,-999.0,44,-99.99,,,0.00,weatherlink.com 1.10,2013-05-01 19:48:00,
2013-05-01 16:04:00,80.9,57.0,30.13,SE,140,14.0,-999.0,44,-99.99,,,0.00,weatherlink.com 1.10,2013-05-01 20:04:00,
2013-05-01 16:19:00,81.1,57.0,30.13,ESE,123,11.0,-999.0,44,-99.99,,,0.00,weatherlink.com 1.10,2013-05-01 20:19:00,
2013-05-01 16:34:00,81.4,57.0,30.14,SE,130,14.0,-999.0,43,-99.99,,,0.00,weatherlink.com 1.10,2013-05-01 20:34:00,
2013-05-01 16:49:00,81.2,57.0,30.13,East,94,8.0,-999.0,44,-99.99,,,0.00,weatherlink.com 1.10,2013-05-01 20:49:00,
2013-05-01 17:04:00,81.3,57.0,30.13,ESE,105,9.0,-999.0,44,-99.99,,,0.00,weatherlink.com 1.10,2013-05-01 21:04:00,
2013-05-01 17:19:00,81.4,57.0,30.13,SSE,153,7.0,-999.0,44,-99.99,,,0.00,weatherlink.com 1.10,2013-05-01 21:19:00,
2013-05-01 17:34:00,81.5,56.0,30.13,ESE,119,2.0,-999.0,42,-99.99,,,0.00,weatherlink.com 1.10,2013-05-01 21:34:00,
2013-05-01 17:49:00,81.6,57.0,30.14,SE,128,6.0,-999.0,43,-99.99,,,0.00,weatherlink.com 1.10,2013-05-01 21:49:00,
2013-05-01 18:04:00,81.9,57.0,30.14,ESE,114,5.0,-999.0,42,-99.99,,,0.00,weatherlink.com 1.10,2013-05-01 22:04:00,
2013-05-01 18:19:00,81.4,56.0,30.14,ESE,119,6.0,-999.0,42,-99.99,,,0.00,weatherlink.com 1.10,2013-05-01 22:19:00,
2013-05-01 18:34:00,81.1,56.0,30.14,ESE,120,7.0,-999.0,42,-99.99,,,0.00,weatherlink.com 1.10,2013-05-01 22:34:00,
2013-05-01 18:49:00,81.1,56.0,30.14,ESE,120,11.0,-999.0,42,-99.99,,,0.00,weatherlink.com 1.10,2013-05-01 22:49:00,
2013-05-01 19:04:00,80.8,57.0,30.13,ESE,109,7.0,-999.0,44,-99.99,,,0.00,weatherlink.com 1.10,2013-05-01 23:04:00,
2013-05-01 19:19:00,80.5,57.0,30.13,ESE,121,6.0,-999.0,45,-99.99,,,0.00,weatherlink.com 1.10,2013-05-01 23:19:00,
2013-05-01 19:35:00,80.0,57.0,30.13,ESE,111,4.0,-999.0,46,-99.99,,,0.00,weatherlink.com 1.10,2013-05-01 23:35:00,
2013-05-01 19:50:00,79.2,57.0,30.12,ESE,102,5.0,-999.0,47,-99.99,,,0.00,weatherlink.com 1.10,2013-05-01 23:50:00,
2013-05-01 20:05:00,78.5,57.0,30.14,ESE,102,4.0,-999.0,48,-99.99,,,0.00,weatherlink.com 1.10,2013-05-02 00:05:00,
2013-05-01 20:20:00,77.4,57.0,30.14,ESE,103,2.0,-999.0,50,-99.99,,,0.00,weatherlink.com 1.10,2013-05-02 00:20:00,
2013-05-01 20:35:00,76.5,57.0,30.14,ESE,103,4.0,-999.0,51,-99.99,,,0.00,weatherlink.com 1.10,2013-05-02 00:35:00,
2013-05-01 20:50:00,75.5,57.0,30.14,ESE,103,4.0,-999.0,53,-99.99,,,0.00,weatherlink.com 1.10,2013-05-02 00:50:00,
2013-05-01 21:05:00,74.7,57.0,30.14,ESE,103,1.0,-999.0,55,-99.99,,,0.00,weatherlink.com 1.10,2013-05-02 01:05:00,
2013-05-01 21:20:00,73.7,58.0,30.15,ESE,103,1.0,-999.0,58,-99.99,,,0.00,weatherlink.com 1.10,2013-05-02 01:20:00,
2013-05-01 21:35:00,73.1,58.0,30.15,ESE,103,4.0,-999.0,59,-99.99,,,0.00,weatherlink.com 1.10,2013-05-02 01:35:00,
2013-05-01 21:50:00,72.5,58.0,30.15,ESE,102,4.0,-999.0,60,-99.99,,,0.00,weatherlink.com 1.10,2013-05-02 01:50:00,
2013-05-01 22:05:00,72.2,58.0,30.16,ESE,103,2.0,-999.0,61,-99.99,,,0.00,weatherlink.com 1.10,2013-05-02 02:05:00,
2013-05-01 22:20:00,71.7,58.0,30.16,ESE,103,0.0,-999.0,62,-99.99,,,0.00,weatherlink.com 1.10,2013-05-02 02:20:00,
2013-05-01 22:35:00,71.1,58.0,30.16,ESE,103,4.0,-999.0,64,-99.99,,,0.00,weatherlink.com 1.10,2013-05-02 02:35:00,
2013-05-01 22:51:00,70.4,58.0,30.16,ESE,103,2.0,-999.0,64,-99.99,,,0.00,weatherlink.com 1.10,2013-05-02 02:51:00,
2013-05-01 23:06:00,69.9,58.0,30.16,ESE,103,2.0,-999.0,66,-99.99,,,0.00,weatherlink.com 1.10,2013-05-02 03:06:00,
2013-05-01 23:21:00,69.5,58.0,30.15,ESE,103,1.0,-999.0,66,-99.99,,,0.00,weatherlink.com 1.10,2013-05-02 03:21:00,
2013-05-01 23:36:00,69.3,57.0,30.15,ESE,102,2.0,-999.0,66,-99.99,,,0.00,weatherlink.com 1.10,2013-05-02 03:36:00,
2013-05-01 23:51:00,69.0,58.0,30.15,ESE,103,4.0,-999.0,67,-99.99,,,0.00,weatherlink.com 1.10,2013-05-02 03:51:00,